Phoenix Cross — MRBQ7 — position and weather

sailwx.info

Track history (hours):
 
Tides and Currents Weather Stations Pressure Air Temp Water Temp Dewpoint Dewpoint Depression Visibility Wind Speed Wind Dir Waves Ship Positions

Phoenix Cross

Last reported at 2015-Sep-03 18:07 UTC. Time now 2015-Sep-03 21:24 UTC.
Position N 54°38' W 001°09'.

Length 30 m; draft 5 m.

Type: Ship. MMSI: 235067452.

Date/timePositionNaut miles runAvg speedWind from/ knotsBaromVisibWave heightAir tempDewpointWater temp
2015-Sep-03 18:07N 54°38' W 001°09'1 0.8
2015-Sep-03 17:22N 54°37' W 001°09'0 0.0
2015-Sep-03 16:33N 54°37' W 001°09'0 0.2
2015-Sep-03 15:32N 54°37' W 001°09'0 0.3
2015-Sep-03 14:32N 54°38' W 001°09'4 3.6
2015-Sep-03 13:33N 54°35' W 001°13'0 0.0
2015-Sep-03 12:32N 54°35' W 001°13'0 0.0
2015-Sep-03 11:32N 54°35' W 001°13'0 0.0
2015-Sep-03 10:33N 54°35' W 001°13'0 0.0
2015-Sep-03 09:33N 54°35' W 001°13'0 0.0
2015-Sep-03 08:33N 54°35' W 001°13'3 2.6
2015-Sep-03 07:30N 54°37' W 001°09'1 0.9
2015-Sep-03 06:31N 54°38' W 001°10'0 0.0
2015-Sep-01 16:33N 54°37' W 001°09'3 3.1
2015-Sep-01 15:33N 54°35' W 001°13'0 0.0
2015-Sep-01 14:33N 54°35' W 001°13'0 0.0
2015-Sep-01 13:33N 54°35' W 001°13'0 0.0
2015-Sep-01 12:31N 54°35' W 001°13'0 0.0
2015-Sep-01 11:33N 54°35' W 001°13'0 0.0
2015-Sep-01 10:31N 54°35' W 001°13'0 0.0
2015-Sep-01 09:32N 54°35' W 001°13'0 0.0
2015-Sep-01 08:31N 54°35' W 001°13'1 1.2
2015-Sep-01 07:33N 54°35' W 001°11'2 2.3
2015-Sep-01 06:33N 54°38' W 001°10'0 0.4
2015-Sep-01 05:33N 54°37' W 001°09'0 0.0
2015-Sep-01 04:33N 54°37' W 001°09'0 0.0
2015-Sep-01 03:31N 54°37' W 001°09'0 0.3
2015-Sep-01 02:33N 54°37' W 001°10'3 0.5
2015-Aug-31 20:23N 54°35' W 001°13'0 0.0
2015-Aug-31 18:31N 54°35' W 001°13'0 0.0
2015-Aug-31 17:33N 54°35' W 001°13'0 0.0
2015-Aug-31 16:33N 54°35' W 001°13'0 0.0
2015-Aug-31 15:33N 54°35' W 001°13'0 0.0
2015-Aug-31 14:32N 54°35' W 001°13'0 0.0
2015-Aug-31 13:28N 54°35' W 001°13'0 0.0
2015-Aug-31 12:32N 54°35' W 001°13'0 0.0
2015-Aug-31 11:33N 54°35' W 001°13'0 0.0
2015-Aug-31 10:32N 54°35' W 001°13'0 0.0
2015-Aug-31 09:33N 54°35' W 001°13'0 0.0
2015-Aug-31 08:30N 54°35' W 001°13'3 3.3
2015-Aug-31 07:33N 54°37' W 001°10'0 0.3
2015-Aug-31 06:33N 54°38' W 001°10'3 0.2
2015-Aug-30 15:21N 54°35' W 001°13'0 0.0
2015-Aug-30 14:33N 54°35' W 001°13'0 0.0
2015-Aug-30 13:33N 54°35' W 001°13'0 0.0
2015-Aug-30 12:33N 54°35' W 001°13'0 0.0
2015-Aug-30 11:33N 54°35' W 001°13'0 0.0
2015-Aug-30 10:32N 54°35' W 001°13'0 0.0
2015-Aug-30 09:33N 54°35' W 001°13'0 0.0
2015-Aug-30 08:33N 54°35' W 001°13'0 0.0
2015-Aug-30 07:29N 54°35' W 001°13'0 0.0
2015-Aug-30 06:33N 54°35' W 001°13'0 0.0
2015-Aug-30 05:33N 54°35' W 001°13'0 0.0
2015-Aug-29 15:24N 54°35' W 001°13'0 0.0
2015-Aug-29 14:33N 54°35' W 001°13'0 0.0
2015-Aug-29 13:33N 54°35' W 001°13'0 0.0
2015-Aug-29 12:33N 54°35' W 001°13'0 0.0
2015-Aug-29 11:33N 54°35' W 001°13'0 0.0
2015-Aug-29 10:33N 54°35' W 001°13'0 0.0
2015-Aug-29 09:33N 54°35' W 001°13'0 0.0
2015-Aug-29 08:33N 54°35' W 001°13'0 0.0
2015-Aug-29 07:33N 54°35' W 001°13'0 0.0
2015-Aug-29 06:32N 54°35' W 001°13'0 0.0
2015-Aug-28 17:15N 54°35' W 001°13'0 0.0
2015-Aug-28 16:32N 54°35' W 001°13'0 0.0
2015-Aug-28 15:33N 54°35' W 001°13'0 0.0
2015-Aug-28 14:32N 54°35' W 001°13'0 0.0
2015-Aug-28 13:32N 54°35' W 001°13'0 0.0
2015-Aug-28 12:33N 54°35' W 001°13'0 0.0
2015-Aug-28 11:33N 54°35' W 001°13'0 0.0
2015-Aug-28 10:33N 54°35' W 001°13'0 0.0
2015-Aug-28 09:33N 54°35' W 001°13'0 0.0
2015-Aug-28 08:33N 54°35' W 001°13'0 0.0
2015-Aug-28 07:32N 54°35' W 001°13'2 1.8
2015-Aug-28 06:32N 54°36' W 001°10'2 1.7
2015-Aug-28 05:33N 54°38' W 001°09'3 0.1
2015-Aug-26 17:28N 54°35' W 001°13'0 0.0
2015-Aug-26 16:33N 54°35' W 001°13'0 0.0
2015-Aug-26 15:33N 54°35' W 001°13'3 3.1
2015-Aug-26 14:33N 54°37' W 001°10'2 1.9
2015-Aug-26 13:33N 54°39' W 001°08'4 4.4
2015-Aug-26 12:33N 54°35' W 001°12'1 0.7
2015-Aug-26 11:33N 54°35' W 001°13'0 0.0
2015-Aug-26 10:33N 54°35' W 001°13'0 0.0
2015-Aug-26 09:33N 54°35' W 001°13'0 0.0
2015-Aug-26 08:33N 54°35' W 001°13'0 0.0
2015-Aug-26 07:33N 54°35' W 001°13'0 0.0
2015-Aug-26 05:21N 54°35' W 001°13'0 0.0
2015-Aug-25 17:04N 54°35' W 001°13'0 0.0
2015-Aug-25 16:32N 54°35' W 001°13'0 0.0
2015-Aug-25 15:30N 54°35' W 001°13'0 0.0
2015-Aug-25 14:33N 54°35' W 001°13'0 0.0
2015-Aug-25 13:33N 54°35' W 001°13'2 1.9
2015-Aug-25 12:32N 54°36' W 001°10'2 1.9
2015-Aug-25 11:33N 54°35' W 001°13'0 0.0
2015-Aug-25 10:33N 54°35' W 001°13'0 0.0
2015-Aug-25 09:29N 54°35' W 001°13'0 0.0
2015-Aug-25 08:33N 54°35' W 001°13'0 0.0
2015-Aug-25 07:33N 54°35' W 001°13'0 0.0
2015-Aug-25 06:33N 54°35' W 001°13'0 0.0
2015-Aug-25 02:22N 54°35' W 001°13'0 0.0
2015-Aug-25 01:29N 54°35' W 001°13'0 0.0
2015-Aug-24 18:32N 54°35' W 001°13'  
Track history (hours):
 
Tides and Currents Weather Stations Pressure Air Temp Water Temp Dewpoint Dewpoint Depression Visibility Wind Speed Wind Dir Waves Ship Positions

Phoenix Cross

Last reported at 2015-Sep-03 18:07 UTC. Time now 2015-Sep-03 21:24 UTC.
Position N 54°38' W 001°09'.

Length 30 m; draft 5 m.

Type: Ship. MMSI: 235067452.

Date/timePositionNaut miles runAvg speedWind from/ knotsBaromVisibWave heightAir tempDewpointWater temp
2015-Sep-03 18:07N 54°38' W 001°09'1 0.8
2015-Sep-03 17:22N 54°37' W 001°09'0 0.0
2015-Sep-03 16:33N 54°37' W 001°09'0 0.2
2015-Sep-03 15:32N 54°37' W 001°09'0 0.3
2015-Sep-03 14:32N 54°38' W 001°09'4 3.6
2015-Sep-03 13:33N 54°35' W 001°13'0 0.0
2015-Sep-03 12:32N 54°35' W 001°13'0 0.0
2015-Sep-03 11:32N 54°35' W 001°13'0 0.0
2015-Sep-03 10:33N 54°35' W 001°13'0 0.0
2015-Sep-03 09:33N 54°35' W 001°13'0 0.0
2015-Sep-03 08:33N 54°35' W 001°13'3 2.6
2015-Sep-03 07:30N 54°37' W 001°09'1 0.9
2015-Sep-03 06:31N 54°38' W 001°10'0 0.0
2015-Sep-01 16:33N 54°37' W 001°09'3 3.1
2015-Sep-01 15:33N 54°35' W 001°13'0 0.0
2015-Sep-01 14:33N 54°35' W 001°13'0 0.0
2015-Sep-01 13:33N 54°35' W 001°13'0 0.0
2015-Sep-01 12:31N 54°35' W 001°13'0 0.0
2015-Sep-01 11:33N 54°35' W 001°13'0 0.0
2015-Sep-01 10:31N 54°35' W 001°13'0 0.0
2015-Sep-01 09:32N 54°35' W 001°13'0 0.0
2015-Sep-01 08:31N 54°35' W 001°13'1 1.2
2015-Sep-01 07:33N 54°35' W 001°11'2 2.3
2015-Sep-01 06:33N 54°38' W 001°10'0 0.4
2015-Sep-01 05:33N 54°37' W 001°09'0 0.0
2015-Sep-01 04:33N 54°37' W 001°09'0 0.0
2015-Sep-01 03:31N 54°37' W 001°09'0 0.3
2015-Sep-01 02:33N 54°37' W 001°10'3 0.5
2015-Aug-31 20:23N 54°35' W 001°13'0 0.0
2015-Aug-31 18:31N 54°35' W 001°13'0 0.0
2015-Aug-31 17:33N 54°35' W 001°13'0 0.0
2015-Aug-31 16:33N 54°35' W 001°13'0 0.0
2015-Aug-31 15:33N 54°35' W 001°13'0 0.0
2015-Aug-31 14:32N 54°35' W 001°13'0 0.0
2015-Aug-31 13:28N 54°35' W 001°13'0 0.0
2015-Aug-31 12:32N 54°35' W 001°13'0 0.0
2015-Aug-31 11:33N 54°35' W 001°13'0 0.0
2015-Aug-31 10:32N 54°35' W 001°13'0 0.0
2015-Aug-31 09:33N 54°35' W 001°13'0 0.0
2015-Aug-31 08:30N 54°35' W 001°13'3 3.3
2015-Aug-31 07:33N 54°37' W 001°10'0 0.3
2015-Aug-31 06:33N 54°38' W 001°10'3 0.2
2015-Aug-30 15:21N 54°35' W 001°13'0 0.0
2015-Aug-30 14:33N 54°35' W 001°13'0 0.0
2015-Aug-30 13:33N 54°35' W 001°13'0 0.0
2015-Aug-30 12:33N 54°35' W 001°13'0 0.0
2015-Aug-30 11:33N 54°35' W 001°13'0 0.0
2015-Aug-30 10:32N 54°35' W 001°13'0 0.0
2015-Aug-30 09:33N 54°35' W 001°13'0 0.0
2015-Aug-30 08:33N 54°35' W 001°13'0 0.0
2015-Aug-30 07:29N 54°35' W 001°13'0 0.0
2015-Aug-30 06:33N 54°35' W 001°13'0 0.0
2015-Aug-30 05:33N 54°35' W 001°13'0 0.0
2015-Aug-29 15:24N 54°35' W 001°13'0 0.0
2015-Aug-29 14:33N 54°35' W 001°13'0 0.0
2015-Aug-29 13:33N 54°35' W 001°13'0 0.0
2015-Aug-29 12:33N 54°35' W 001°13'0 0.0
2015-Aug-29 11:33N 54°35' W 001°13'0 0.0
2015-Aug-29 10:33N 54°35' W 001°13'0 0.0
2015-Aug-29 09:33N 54°35' W 001°13'0 0.0
2015-Aug-29 08:33N 54°35' W 001°13'0 0.0
2015-Aug-29 07:33N 54°35' W 001°13'0 0.0
2015-Aug-29 06:32N 54°35' W 001°13'0 0.0
2015-Aug-28 17:15N 54°35' W 001°13'0 0.0
2015-Aug-28 16:32N 54°35' W 001°13'0 0.0
2015-Aug-28 15:33N 54°35' W 001°13'0 0.0
2015-Aug-28 14:32N 54°35' W 001°13'0 0.0
2015-Aug-28 13:32N 54°35' W 001°13'0 0.0
2015-Aug-28 12:33N 54°35' W 001°13'0 0.0
2015-Aug-28 11:33N 54°35' W 001°13'0 0.0
2015-Aug-28 10:33N 54°35' W 001°13'0 0.0
2015-Aug-28 09:33N 54°35' W 001°13'0 0.0
2015-Aug-28 08:33N 54°35' W 001°13'0 0.0
2015-Aug-28 07:32N 54°35' W 001°13'2 1.8
2015-Aug-28 06:32N 54°36' W 001°10'2 1.7
2015-Aug-28 05:33N 54°38' W 001°09'3 0.1
2015-Aug-26 17:28N 54°35' W 001°13'0 0.0
2015-Aug-26 16:33N 54°35' W 001°13'0 0.0
2015-Aug-26 15:33N 54°35' W 001°13'3 3.1
2015-Aug-26 14:33N 54°37' W 001°10'2 1.9
2015-Aug-26 13:33N 54°39' W 001°08'4 4.4
2015-Aug-26 12:33N 54°35' W 001°12'1 0.7
2015-Aug-26 11:33N 54°35' W 001°13'0 0.0
2015-Aug-26 10:33N 54°35' W 001°13'0 0.0
2015-Aug-26 09:33N 54°35' W 001°13'0 0.0
2015-Aug-26 08:33N 54°35' W 001°13'0 0.0
2015-Aug-26 07:33N 54°35' W 001°13'0 0.0
2015-Aug-26 05:21N 54°35' W 001°13'0 0.0
2015-Aug-25 17:04N 54°35' W 001°13'0 0.0
2015-Aug-25 16:32N 54°35' W 001°13'0 0.0
2015-Aug-25 15:30N 54°35' W 001°13'0 0.0
2015-Aug-25 14:33N 54°35' W 001°13'0 0.0
2015-Aug-25 13:33N 54°35' W 001°13'2 1.9
2015-Aug-25 12:32N 54°36' W 001°10'2 1.9
2015-Aug-25 11:33N 54°35' W 001°13'0 0.0
2015-Aug-25 10:33N 54°35' W 001°13'0 0.0
2015-Aug-25 09:29N 54°35' W 001°13'0 0.0
2015-Aug-25 08:33N 54°35' W 001°13'0 0.0
2015-Aug-25 07:33N 54°35' W 001°13'0 0.0
2015-Aug-25 06:33N 54°35' W 001°13'0 0.0
2015-Aug-25 02:22N 54°35' W 001°13'0 0.0
2015-Aug-25 01:29N 54°35' W 001°13'0 0.0
2015-Aug-24 18:32N 54°35' W 001°13'  

Dump ship's entire track history